Izumo Princess — SXMB — position and weather

sailwx.info

Track history (hours):
 
Tides and Currents Weather Stations Pressure Air Temp Water Temp Dewpoint Dewpoint Depression Visibility Wind Speed Wind Dir Waves Ship Positions

Izumo Princess

Last reported at 2016-Sep-26 08:33 UTC. Time now 2016-Sep-26 10:34 UTC.
Position N 59°33' E 023°25'.

Length 229 m; draft 8 m.

Type: Tanker. MMSI: 240611000.

Date/timePositionNaut miles runAvg speedWind from/ knotsBaromVisibWave heightAir tempDewpointWater temp
2016-Sep-26 08:33N 59°33' E 023°25'346 9.0
2016-Sep-24 18:06N 55°35' E 015°36'610.6
2016-Sep-24 17:33N 55°34' E 015°26'1110.8
2016-Sep-24 16:33N 55°31' E 015°07'2210.8
2016-Sep-24 14:33N 55°21' E 014°34'2110.7
2016-Sep-24 12:33N 55°04' E 014°11'2110.6
2016-Sep-24 10:32N 54°55' E 013°37'7110.2
2016-Sep-24 03:33N 54°26' E 011°45'1212.2
2016-Sep-24 02:33N 54°31' E 011°26'1212.4
2016-Sep-24 01:33N 54°36' E 011°07'1211.7
2016-Sep-24 00:33N 54°44' E 010°51'12211.1
2016-Sep-23 13:33N 56°42' E 011°49'4711.8
2016-Sep-23 09:33N 57°27' E 011°25'3510.5
2016-Sep-23 06:11N 57°48' E 010°32'10110.5
2016-Sep-22 20:33N 57°10' E 007°37'26010.4
2016-Sep-21 19:33N 54°41' E 001°16'24 7.9
2016-Sep-21 16:33N 54°20' E 000°56'38 5.5
2016-Sep-21 09:33N 53°46' E 000°26'0 0.0
2016-Sep-21 08:33N 53°46' E 000°26'0 0.0
2016-Sep-21 05:30N 53°46' E 000°26'0 0.1
2016-Sep-21 03:33N 53°46' E 000°26'0 0.1
2016-Sep-21 02:03N 53°46' E 000°26'0 0.0
2016-Sep-20 17:33N 53°46' E 000°26'0 0.1
2016-Sep-20 14:33N 53°46' E 000°26'0 0.0
2016-Sep-20 13:33N 53°46' E 000°26'0 0.0
2016-Sep-20 10:27N 53°46' E 000°26'0 0.1
2016-Sep-20 08:24N 53°46' E 000°26'0 0.0
2016-Sep-20 07:27N 53°46' E 000°26'0 0.0
2016-Sep-20 06:24N 53°46' E 000°26'0 0.1
2016-Sep-20 02:33N 53°46' E 000°25'0 0.0
2016-Sep-19 23:33N 53°46' E 000°26'0 0.1
2016-Sep-19 19:33N 53°46' E 000°26'0 0.0
2016-Sep-19 18:24N 53°46' E 000°26'0 0.0
2016-Sep-19 16:30N 53°46' E 000°26'0 0.0
2016-Sep-19 14:21N 53°46' E 000°26'0 0.3
2016-Sep-19 13:33N 53°46' E 000°25'0 0.0
2016-Sep-19 12:15N 53°47' E 000°26'0 0.0
2016-Sep-19 11:33N 53°47' E 000°26'0 0.0
2016-Sep-19 09:33N 53°47' E 000°26'0 0.1
2016-Sep-19 06:24N 53°46' E 000°26'0 0.0
2016-Sep-19 03:24N 53°46' E 000°26'0 0.0
2016-Sep-19 02:30N 53°46' E 000°26'0 0.1
2016-Sep-19 00:33N 53°47' E 000°26'0 0.1
2016-Sep-18 19:30N 53°46' E 000°26'0 0.0
2016-Sep-18 15:27N 53°46' E 000°26'0 0.1
2016-Sep-18 14:30N 53°46' E 000°26'0 0.0
2016-Sep-18 09:24N 53°46' E 000°26'0 0.0
2016-Sep-18 02:33N 53°46' E 000°26'0 0.0
2016-Sep-18 01:21N 53°46' E 000°26'0 0.2
2016-Sep-18 00:18N 53°46' E 000°26'0 0.1
2016-Sep-17 20:33N 53°46' E 000°26'0 0.1
2016-Sep-17 19:03N 53°46' E 000°26'0 0.0
2016-Sep-17 13:21N 53°46' E 000°26'0 0.1
2016-Sep-17 12:18N 53°46' E 000°26'0 0.1
2016-Sep-17 10:24N 53°47' E 000°26'0 0.5
2016-Sep-17 09:33N 53°46' E 000°25'3 1.4
2016-Sep-17 07:22N 53°43' E 000°27'17 0.9
2016-Sep-16 12:33N 53°37' E 000°00'6 2.1
2016-Sep-16 09:32N 53°38' W 000°10'  
Track history (hours):
 
Tides and Currents Weather Stations Pressure Air Temp Water Temp Dewpoint Dewpoint Depression Visibility Wind Speed Wind Dir Waves Ship Positions

Izumo Princess

Last reported at 2016-Sep-26 08:33 UTC. Time now 2016-Sep-26 10:34 UTC.
Position N 59°33' E 023°25'.

Length 229 m; draft 8 m.

Type: Tanker. MMSI: 240611000.

Date/timePositionNaut miles runAvg speedWind from/ knotsBaromVisibWave heightAir tempDewpointWater temp
2016-Sep-26 08:33N 59°33' E 023°25'346 9.0
2016-Sep-24 18:06N 55°35' E 015°36'610.6
2016-Sep-24 17:33N 55°34' E 015°26'1110.8
2016-Sep-24 16:33N 55°31' E 015°07'2210.8
2016-Sep-24 14:33N 55°21' E 014°34'2110.7
2016-Sep-24 12:33N 55°04' E 014°11'2110.6
2016-Sep-24 10:32N 54°55' E 013°37'7110.2
2016-Sep-24 03:33N 54°26' E 011°45'1212.2
2016-Sep-24 02:33N 54°31' E 011°26'1212.4
2016-Sep-24 01:33N 54°36' E 011°07'1211.7
2016-Sep-24 00:33N 54°44' E 010°51'12211.1
2016-Sep-23 13:33N 56°42' E 011°49'4711.8
2016-Sep-23 09:33N 57°27' E 011°25'3510.5
2016-Sep-23 06:11N 57°48' E 010°32'10110.5
2016-Sep-22 20:33N 57°10' E 007°37'26010.4
2016-Sep-21 19:33N 54°41' E 001°16'24 7.9
2016-Sep-21 16:33N 54°20' E 000°56'38 5.5
2016-Sep-21 09:33N 53°46' E 000°26'0 0.0
2016-Sep-21 08:33N 53°46' E 000°26'0 0.0
2016-Sep-21 05:30N 53°46' E 000°26'0 0.1
2016-Sep-21 03:33N 53°46' E 000°26'0 0.1
2016-Sep-21 02:03N 53°46' E 000°26'0 0.0
2016-Sep-20 17:33N 53°46' E 000°26'0 0.1
2016-Sep-20 14:33N 53°46' E 000°26'0 0.0
2016-Sep-20 13:33N 53°46' E 000°26'0 0.0
2016-Sep-20 10:27N 53°46' E 000°26'0 0.1
2016-Sep-20 08:24N 53°46' E 000°26'0 0.0
2016-Sep-20 07:27N 53°46' E 000°26'0 0.0
2016-Sep-20 06:24N 53°46' E 000°26'0 0.1
2016-Sep-20 02:33N 53°46' E 000°25'0 0.0
2016-Sep-19 23:33N 53°46' E 000°26'0 0.1
2016-Sep-19 19:33N 53°46' E 000°26'0 0.0
2016-Sep-19 18:24N 53°46' E 000°26'0 0.0
2016-Sep-19 16:30N 53°46' E 000°26'0 0.0
2016-Sep-19 14:21N 53°46' E 000°26'0 0.3
2016-Sep-19 13:33N 53°46' E 000°25'0 0.0
2016-Sep-19 12:15N 53°47' E 000°26'0 0.0
2016-Sep-19 11:33N 53°47' E 000°26'0 0.0
2016-Sep-19 09:33N 53°47' E 000°26'0 0.1
2016-Sep-19 06:24N 53°46' E 000°26'0 0.0
2016-Sep-19 03:24N 53°46' E 000°26'0 0.0
2016-Sep-19 02:30N 53°46' E 000°26'0 0.1
2016-Sep-19 00:33N 53°47' E 000°26'0 0.1
2016-Sep-18 19:30N 53°46' E 000°26'0 0.0
2016-Sep-18 15:27N 53°46' E 000°26'0 0.1
2016-Sep-18 14:30N 53°46' E 000°26'0 0.0
2016-Sep-18 09:24N 53°46' E 000°26'0 0.0
2016-Sep-18 02:33N 53°46' E 000°26'0 0.0
2016-Sep-18 01:21N 53°46' E 000°26'0 0.2
2016-Sep-18 00:18N 53°46' E 000°26'0 0.1
2016-Sep-17 20:33N 53°46' E 000°26'0 0.1
2016-Sep-17 19:03N 53°46' E 000°26'0 0.0
2016-Sep-17 13:21N 53°46' E 000°26'0 0.1
2016-Sep-17 12:18N 53°46' E 000°26'0 0.1
2016-Sep-17 10:24N 53°47' E 000°26'0 0.5
2016-Sep-17 09:33N 53°46' E 000°25'3 1.4
2016-Sep-17 07:22N 53°43' E 000°27'17 0.9
2016-Sep-16 12:33N 53°37' E 000°00'6 2.1
2016-Sep-16 09:32N 53°38' W 000°10'  

Dump ship's entire track history